sensor_id;sensor_type;location;lat;lon;timestamp;pressure;altitude;pressure_sealevel;temperature;humidity
76611;BME280;65503;48.534;9.062;2024-01-30T00:00:48;98292.91;;;3.33;70.56
76611;BME280;65503;48.534;9.062;2024-01-30T00:03:15;98290.59;;;3.30;70.69
76611;BME280;65503;48.534;9.062;2024-01-30T00:05:41;98285.91;;;3.34;70.58
76611;BME280;65503;48.534;9.062;2024-01-30T00:08:08;98286.41;;;3.38;71.81
76611;BME280;65503;48.534;9.062;2024-01-30T00:10:34;98275.28;;;3.45;71.49
76611;BME280;65503;48.534;9.062;2024-01-30T00:13:01;98284.19;;;3.43;71.72
76611;BME280;65503;48.534;9.062;2024-01-30T00:15:27;98291.75;;;3.36;71.85
76611;BME280;65503;48.534;9.062;2024-01-30T00:17:54;98288.78;;;3.49;70.95
76611;BME280;65503;48.534;9.062;2024-01-30T00:20:20;98285.88;;;3.52;72.08
76611;BME280;65503;48.534;9.062;2024-01-30T00:22:47;98285.88;;;3.52;72.59
76611;BME280;65503;48.534;9.062;2024-01-30T00:25:14;98293.09;;;3.58;71.09
76611;BME280;65503;48.534;9.062;2024-01-30T00:27:41;98287.88;;;3.58;70.83
76611;BME280;65503;48.534;9.062;2024-01-30T00:30:08;98291.09;;;3.52;71.27
76611;BME280;65503;48.534;9.062;2024-01-30T00:32:35;98286.63;;;3.44;71.45
76611;BME280;65503;48.534;9.062;2024-01-30T00:35:01;98290.38;;;3.42;70.92
76611;BME280;65503;48.534;9.062;2024-01-30T00:37:28;98281.44;;;3.44;71.62
76611;BME280;65503;48.534;9.062;2024-01-30T00:39:55;98282.09;;;3.46;71.97
76611;BME280;65503;48.534;9.062;2024-01-30T00:42:21;98286.13;;;3.41;71.44
76611;BME280;65503;48.534;9.062;2024-01-30T00:44:50;98280.41;;;3.37;71.12
76611;BME280;65503;48.534;9.062;2024-01-30T00:47:17;98276.34;;;3.35;71.18
76611;BME280;65503;48.534;9.062;2024-01-30T00:49:44;98291.63;;;3.38;72.48
76611;BME280;65503;48.534;9.062;2024-01-30T00:52:10;98282.97;;;3.55;71.34
76611;BME280;65503;48.534;9.062;2024-01-30T00:54:37;98284.28;;;3.59;71.95
76611;BME280;65503;48.534;9.062;2024-01-30T00:57:04;98285.63;;;3.63;71.95
76611;BME280;65503;48.534;9.062;2024-01-30T00:59:31;98281.41;;;3.62;71.70
76611;BME280;65503;48.534;9.062;2024-01-30T01:01:57;98289.19;;;3.62;71.88
76611;BME280;65503;48.534;9.062;2024-01-30T01:04:24;98283.50;;;3.58;71.22
76611;BME280;65503;48.534;9.062;2024-01-30T01:06:53;98289.59;;;3.49;71.77
76611;BME280;65503;48.534;9.062;2024-01-30T01:09:20;98292.78;;;3.61;71.49
76611;BME280;65503;48.534;9.062;2024-01-30T01:11:46;98289.81;;;3.56;72.43
76611;BME280;65503;48.534;9.062;2024-01-30T01:14:12;98291.59;;;3.55;71.91
76611;BME280;65503;48.534;9.062;2024-01-30T01:16:39;98301.13;;;3.47;71.51
76611;BME280;65503;48.534;9.062;2024-01-30T01:19:05;98289.38;;;3.43;71.30
76611;BME280;65503;48.534;9.062;2024-01-30T01:21:32;98295.59;;;3.42;71.53
76611;BME280;65503;48.534;9.062;2024-01-30T01:23:59;98293.91;;;3.58;71.98
76611;BME280;65503;48.534;9.062;2024-01-30T01:26:25;98297.06;;;3.70;71.89
76611;BME280;65503;48.534;9.062;2024-01-30T01:28:52;98290.94;;;3.79;72.59
76611;BME280;65503;48.534;9.062;2024-01-30T01:31:18;98304.63;;;3.81;72.33
76611;BME280;65503;48.534;9.062;2024-01-30T01:33:45;98297.25;;;3.77;71.99
76611;BME280;65503;48.534;9.062;2024-01-30T01:36:15;98291.59;;;3.81;72.11
76611;BME280;65503;48.534;9.062;2024-01-30T01:38:42;98290.31;;;3.85;71.39
76611;BME280;65503;48.534;9.062;2024-01-30T01:41:09;98292.56;;;3.80;71.96
76611;BME280;65503;48.534;9.062;2024-01-30T01:43:35;98299.72;;;3.78;71.31
76611;BME280;65503;48.534;9.062;2024-01-30T01:46:07;98301.19;;;3.81;71.75
76611;BME280;65503;48.534;9.062;2024-01-30T01:48:34;98305.13;;;3.85;71.32
76611;BME280;65503;48.534;9.062;2024-01-30T01:51:01;98296.03;;;3.89;71.58
76611;BME280;65503;48.534;9.062;2024-01-30T01:53:29;98291.50;;;3.91;71.66
76611;BME280;65503;48.534;9.062;2024-01-30T01:55:56;98293.97;;;4.00;71.20
76611;BME280;65503;48.534;9.062;2024-01-30T01:58:26;98297.44;;;4.09;71.18
76611;BME280;65503;48.534;9.062;2024-01-30T02:00:56;98295.19;;;4.14;70.97
76611;BME280;65503;48.534;9.062;2024-01-30T02:03:23;98295.38;;;4.21;71.08
76611;BME280;65503;48.534;9.062;2024-01-30T02:05:50;98300.41;;;4.14;71.56
76611;BME280;65503;48.534;9.062;2024-01-30T02:08:17;98292.13;;;4.19;71.17
76611;BME280;65503;48.534;9.062;2024-01-30T02:10:44;98285.88;;;4.11;70.74
76611;BME280;65503;48.534;9.062;2024-01-30T02:13:10;98289.28;;;4.04;70.19
76611;BME280;65503;48.534;9.062;2024-01-30T02:15:37;98290.72;;;3.98;69.52
76611;BME280;65503;48.534;9.062;2024-01-30T02:18:04;98282.44;;;3.77;69.93
76611;BME280;65503;48.534;9.062;2024-01-30T02:20:31;98278.19;;;3.68;70.04
76611;BME280;65503;48.534;9.062;2024-01-30T02:22:58;98278.91;;;3.52;69.81
76611;BME280;65503;48.534;9.062;2024-01-30T02:25:36;98273.41;;;3.38;69.61
76611;BME280;65503;48.534;9.062;2024-01-30T02:28:02;98282.06;;;3.20;69.83
76611;BME280;65503;48.534;9.062;2024-01-30T02:30:29;98285.84;;;3.08;70.42
76611;BME280;65503;48.534;9.062;2024-01-30T02:32:56;98288.09;;;3.03;70.70
76611;BME280;65503;48.534;9.062;2024-01-30T02:35:22;98293.59;;;3.00;71.54
76611;BME280;65503;48.534;9.062;2024-01-30T02:37:49;98283.19;;;3.00;71.41
76611;BME280;65503;48.534;9.062;2024-01-30T02:40:15;98279.94;;;2.98;71.43
76611;BME280;65503;48.534;9.062;2024-01-30T02:42:42;98274.34;;;2.93;71.45
76611;BME280;65503;48.534;9.062;2024-01-30T02:45:09;98279.19;;;2.88;70.79
76611;BME280;65503;48.534;9.062;2024-01-30T02:47:36;98281.69;;;2.80;70.78
76611;BME280;65503;48.534;9.062;2024-01-30T02:50:03;98281.69;;;2.80;71.62
76611;BME280;65503;48.534;9.062;2024-01-30T02:52:30;98281.41;;;2.83;71.07
76611;BME280;65503;48.534;9.062;2024-01-30T02:54:57;98289.06;;;2.84;70.82
76611;BME280;65503;48.534;9.062;2024-01-30T02:57:24;98280.09;;;2.79;71.37
76611;BME280;65503;48.534;9.062;2024-01-30T02:59:51;98282.28;;;2.74;71.91
76611;BME280;65503;48.534;9.062;2024-01-30T03:02:17;98281.78;;;2.70;71.56
76611;BME280;65503;48.534;9.062;2024-01-30T03:04:44;98279.63;;;2.66;72.30
76611;BME280;65503;48.534;9.062;2024-01-30T03:07:11;98272.78;;;2.65;71.66
76611;BME280;65503;48.534;9.062;2024-01-30T03:09:38;98276.34;;;2.64;71.72
76611;BME280;65503;48.534;9.062;2024-01-30T03:12:05;98280.72;;;2.63;70.76
76611;BME280;65503;48.534;9.062;2024-01-30T03:14:36;98278.28;;;2.62;71.66
76611;BME280;65503;48.534;9.062;2024-01-30T03:17:03;98272.03;;;2.55;72.31
76611;BME280;65503;48.534;9.062;2024-01-30T03:19:29;98272.63;;;2.48;72.11
76611;BME280;65503;48.534;9.062;2024-01-30T03:21:58;98276.50;;;2.44;71.61
76611;BME280;65503;48.534;9.062;2024-01-30T03:24:25;98278.69;;;2.39;72.10
76611;BME280;65503;48.534;9.062;2024-01-30T03:26:51;98287.72;;;2.35;71.74
76611;BME280;65503;48.534;9.062;2024-01-30T03:29:18;98287.16;;;2.41;71.98
76611;BME280;65503;48.534;9.062;2024-01-30T03:31:44;98286.19;;;2.42;72.24
76611;BME280;65503;48.534;9.062;2024-01-30T03:34:11;98285.75;;;2.47;72.27
76611;BME280;65503;48.534;9.062;2024-01-30T03:36:37;98285.31;;;2.52;72.35
76611;BME280;65503;48.534;9.062;2024-01-30T03:39:04;98278.34;;;2.52;72.24
76611;BME280;65503;48.534;9.062;2024-01-30T03:41:30;98279.72;;;2.46;72.10
76611;BME280;65503;48.534;9.062;2024-01-30T03:43:57;98281.97;;;2.41;72.38
76611;BME280;65503;48.534;9.062;2024-01-30T03:46:24;98286.91;;;2.35;71.45
76611;BME280;65503;48.534;9.062;2024-01-30T03:48:51;98281.72;;;2.35;72.60
76611;BME280;65503;48.534;9.062;2024-01-30T03:51:17;98282.53;;;2.35;72.32
76611;BME280;65503;48.534;9.062;2024-01-30T03:53:44;98287.06;;;2.33;72.42
76611;BME280;65503;48.534;9.062;2024-01-30T03:56:12;98288.31;;;2.29;72.20
76611;BME280;65503;48.534;9.062;2024-01-30T03:58:41;98280.13;;;2.24;71.60
76611;BME280;65503;48.534;9.062;2024-01-30T04:01:13;98290.53;;;2.24;71.32
76611;BME280;65503;48.534;9.062;2024-01-30T04:03:40;98293.03;;;2.16;72.40
76611;BME280;65503;48.534;9.062;2024-01-30T04:06:07;98287.84;;;2.16;72.57
76611;BME280;65503;48.534;9.062;2024-01-30T04:08:35;98286.47;;;2.12;72.63
76611;BME280;65503;48.534;9.062;2024-01-30T04:11:05;98285.13;;;2.08;72.38
76611;BME280;65503;48.534;9.062;2024-01-30T04:13:34;98278.59;;;2.04;72.40
76611;BME280;65503;48.534;9.062;2024-01-30T04:16:01;98280.81;;;1.99;72.41
76611;BME280;65503;48.534;9.062;2024-01-30T04:18:29;98274.38;;;2.03;72.92
76611;BME280;65503;48.534;9.062;2024-01-30T04:20:56;98285.72;;;2.02;72.63
76611;BME280;65503;48.534;9.062;2024-01-30T04:23:22;98288.16;;;2.03;72.59
76611;BME280;65503;48.534;9.062;2024-01-30T04:25:49;98280.75;;;2.08;72.31
76611;BME280;65503;48.534;9.062;2024-01-30T04:28:15;98281.59;;;2.09;72.86
76611;BME280;65503;48.534;9.062;2024-01-30T04:30:42;98277.03;;;2.11;72.62
76611;BME280;65503;48.534;9.062;2024-01-30T04:33:10;98286.38;;;2.31;72.77
76611;BME280;65503;48.534;9.062;2024-01-30T04:35:37;98284.34;;;2.53;73.66
76611;BME280;65503;48.534;9.062;2024-01-30T04:38:03;98290.84;;;2.66;73.97
76611;BME280;65503;48.534;9.062;2024-01-30T04:40:30;98285.13;;;2.80;73.64
76611;BME280;65503;48.534;9.062;2024-01-30T04:42:56;98284.59;;;2.77;73.53
76611;BME280;65503;48.534;9.062;2024-01-30T04:45:23;98296.63;;;2.78;72.75
76611;BME280;65503;48.534;9.062;2024-01-30T04:47:49;98286.84;;;2.72;72.31
76611;BME280;65503;48.534;9.062;2024-01-30T04:50:16;98286.75;;;2.64;72.04
76611;BME280;65503;48.534;9.062;2024-01-30T04:52:43;98291.03;;;2.55;71.95
76611;BME280;65503;48.534;9.062;2024-01-30T04:55:09;98289.28;;;2.56;72.24
76611;BME280;65503;48.534;9.062;2024-01-30T04:57:36;98284.81;;;2.66;72.94
76611;BME280;65503;48.534;9.062;2024-01-30T05:00:03;98291.06;;;2.73;73.33
76611;BME280;65503;48.534;9.062;2024-01-30T05:02:31;98288.03;;;2.77;72.66
76611;BME280;65503;48.534;9.062;2024-01-30T05:04:58;98289.44;;;2.72;71.89
76611;BME280;65503;48.534;9.062;2024-01-30T05:07:25;98299.88;;;2.62;71.49
76611;BME280;65503;48.534;9.062;2024-01-30T05:09:52;98291.75;;;2.47;71.74
76611;BME280;65503;48.534;9.062;2024-01-30T05:12:21;98299.06;;;2.34;71.97
76611;BME280;65503;48.534;9.062;2024-01-30T05:14:48;98290.25;;;2.27;72.16
76611;BME280;65503;48.534;9.062;2024-01-30T05:17:14;98288.50;;;2.18;72.68
76611;BME280;65503;48.534;9.062;2024-01-30T05:19:43;98298.22;;;2.16;72.45
76611;BME280;65503;48.534;9.062;2024-01-30T05:22:10;98297.69;;;2.13;72.18
76611;BME280;65503;48.534;9.062;2024-01-30T05:24:37;98297.16;;;2.09;71.95
76611;BME280;65503;48.534;9.062;2024-01-30T05:27:03;98302.63;;;2.06;72.62
76611;BME280;65503;48.534;9.062;2024-01-30T05:29:30;98296.91;;;2.02;72.77
76611;BME280;65503;48.534;9.062;2024-01-30T05:31:56;98286.22;;;2.05;72.42
76611;BME280;65503;48.534;9.062;2024-01-30T05:34:23;98292.72;;;2.19;73.13
76611;BME280;65503;48.534;9.062;2024-01-30T05:36:51;98294.44;;;2.38;73.25
76611;BME280;65503;48.534;9.062;2024-01-30T05:39:17;98287.09;;;2.51;73.68
76611;BME280;65503;48.534;9.062;2024-01-30T05:41:44;98298.25;;;2.61;73.79
76611;BME280;65503;48.534;9.062;2024-01-30T05:44:11;98294.91;;;2.69;73.38
76611;BME280;65503;48.534;9.062;2024-01-30T05:46:37;98293.25;;;2.68;73.11
76611;BME280;65503;48.534;9.062;2024-01-30T05:49:04;98309.16;;;2.65;73.46
76611;BME280;65503;48.534;9.062;2024-01-30T05:51:30;98305.59;;;2.66;73.52
76611;BME280;65503;48.534;9.062;2024-01-30T05:53:57;98306.69;;;2.63;73.56
76611;BME280;65503;48.534;9.062;2024-01-30T05:56:23;98304.72;;;2.75;72.78
76611;BME280;65503;48.534;9.062;2024-01-30T05:58:50;98305.78;;;2.82;73.12
76611;BME280;65503;48.534;9.062;2024-01-30T06:01:17;98294.91;;;2.86;73.27
76611;BME280;65503;48.534;9.062;2024-01-30T06:03:43;98312.03;;;2.89;73.68
76611;BME280;65503;48.534;9.062;2024-01-30T06:06:10;98308.97;;;2.94;73.34
76611;BME280;65503;48.534;9.062;2024-01-30T06:08:36;98305.03;;;3.07;73.60
76611;BME280;65503;48.534;9.062;2024-01-30T06:11:03;98297.91;;;3.09;73.03
76611;BME280;65503;48.534;9.062;2024-01-30T06:13:29;98304.72;;;3.10;73.25
76611;BME280;65503;48.534;9.062;2024-01-30T06:15:58;98303.09;;;3.09;72.31
76611;BME280;65503;48.534;9.062;2024-01-30T06:18:24;98306.22;;;2.95;72.16
76611;BME280;65503;48.534;9.062;2024-01-30T06:20:52;98310.97;;;2.82;71.29
76611;BME280;65503;48.534;9.062;2024-01-30T06:23:19;98302.06;;;2.67;71.48
76611;BME280;65503;48.534;9.062;2024-01-30T06:25:45;98311.97;;;2.54;71.73
76611;BME280;65503;48.534;9.062;2024-01-30T06:28:12;98306.97;;;2.42;71.39
76611;BME280;65503;48.534;9.062;2024-01-30T06:30:38;98310.97;;;2.37;71.61
76611;BME280;65503;48.534;9.062;2024-01-30T06:33:05;98309.31;;;2.36;71.45
76611;BME280;65503;48.534;9.062;2024-01-30T06:35:32;98311.69;;;2.29;71.82
76611;BME280;65503;48.534;9.062;2024-01-30T06:37:58;98309.38;;;2.26;71.91
76611;BME280;65503;48.534;9.062;2024-01-30T06:40:25;98309.28;;;2.18;71.67
76611;BME280;65503;48.534;9.062;2024-01-30T06:42:52;98315.41;;;2.17;71.75
76611;BME280;65503;48.534;9.062;2024-01-30T06:45:18;98317.34;;;2.15;72.42
76611;BME280;65503;48.534;9.062;2024-01-30T06:47:45;98317.34;;;2.15;72.10
76611;BME280;65503;48.534;9.062;2024-01-30T06:50:11;98316.53;;;2.15;72.78
76611;BME280;65503;48.534;9.062;2024-01-30T06:52:38;98316.78;;;2.21;72.68
76611;BME280;65503;48.534;9.062;2024-01-30T06:55:05;98309.81;;;2.22;72.88
76611;BME280;65503;48.534;9.062;2024-01-30T06:57:31;98314.28;;;2.29;72.98
76611;BME280;65503;48.534;9.062;2024-01-30T06:59:58;98316.16;;;2.37;73.24
76611;BME280;65503;48.534;9.062;2024-01-30T07:02:24;98326.78;;;2.43;73.48
76611;BME280;65503;48.534;9.062;2024-01-30T07:04:50;98321.97;;;2.48;72.98
76611;BME280;65503;48.534;9.062;2024-01-30T07:07:17;98322.94;;;2.47;72.79
76611;BME280;65503;48.534;9.062;2024-01-30T07:09:44;98322.59;;;2.60;72.37
76611;BME280;65503;48.534;9.062;2024-01-30T07:12:10;98332.53;;;2.65;72.86
76611;BME280;65503;48.534;9.062;2024-01-30T07:14:37;98333.22;;;2.67;72.72
76611;BME280;65503;48.534;9.062;2024-01-30T07:17:04;98339.06;;;2.69;72.75
76611;BME280;65503;48.534;9.062;2024-01-30T07:19:30;98334.25;;;2.74;72.71
76611;BME280;65503;48.534;9.062;2024-01-30T07:21:57;98343.22;;;2.89;72.74
76611;BME280;65503;48.534;9.062;2024-01-30T07:24:23;98342.63;;;2.95;72.95
76611;BME280;65503;48.534;9.062;2024-01-30T07:26:50;98337.34;;;3.05;72.78
76611;BME280;65503;48.534;9.062;2024-01-30T07:29:17;98343.06;;;3.08;72.43
76611;BME280;65503;48.534;9.062;2024-01-30T07:31:44;98337.56;;;3.11;72.42
76611;BME280;65503;48.534;9.062;2024-01-30T07:34:11;98333.09;;;3.21;72.08
76611;BME280;65503;48.534;9.062;2024-01-30T07:36:38;98331.91;;;3.33;72.31
76611;BME280;65503;48.534;9.062;2024-01-30T07:39:05;98330.41;;;3.49;71.85
76611;BME280;65503;48.534;9.062;2024-01-30T07:41:31;98335.44;;;3.68;72.05
76611;BME280;65503;48.534;9.062;2024-01-30T07:43:58;98329.31;;;3.77;72.24
76611;BME280;65503;48.534;9.062;2024-01-30T07:46:24;98331.97;;;3.85;71.38
76611;BME280;65503;48.534;9.062;2024-01-30T07:48:50;98325.22;;;4.00;71.32
76611;BME280;65503;48.534;9.062;2024-01-30T07:51:20;98331.13;;;4.10;70.28
76611;BME280;65503;48.534;9.062;2024-01-30T07:53:46;98334.13;;;4.15;69.74
76611;BME280;65503;48.534;9.062;2024-01-30T07:56:13;98332.84;;;4.28;69.14
76611;BME280;65503;48.534;9.062;2024-01-30T07:58:39;98339.75;;;4.45;69.86
76611;BME280;65503;48.534;9.062;2024-01-30T08:01:06;98345.75;;;4.79;70.63
76611;BME280;65503;48.534;9.062;2024-01-30T08:03:33;98347.13;;;5.08;69.80
76611;BME280;65503;48.534;9.062;2024-01-30T08:06:00;98349.09;;;5.30;69.98
76611;BME280;65503;48.534;9.062;2024-01-30T08:08:27;98348.47;;;5.60;70.13
76611;BME280;65503;48.534;9.062;2024-01-30T08:10:53;98338.69;;;5.87;68.73
76611;BME280;65503;48.534;9.062;2024-01-30T08:13:20;98347.09;;;6.21;68.36
76611;BME280;65503;48.534;9.062;2024-01-30T08:15:46;98343.66;;;6.68;66.53
76611;BME280;65503;48.534;9.062;2024-01-30T08:18:13;98344.09;;;7.10;68.12
76611;BME280;65503;48.534;9.062;2024-01-30T08:20:39;98346.25;;;7.29;65.13
76611;BME280;65503;48.534;9.062;2024-01-30T08:23:06;98342.47;;;7.55;65.55
76611;BME280;65503;48.534;9.062;2024-01-30T08:25:32;98344.81;;;7.87;66.89
76611;BME280;65503;48.534;9.062;2024-01-30T08:27:59;98337.25;;;8.07;65.83
76611;BME280;65503;48.534;9.062;2024-01-30T08:30:26;98343.22;;;8.15;63.15
76611;BME280;65503;48.534;9.062;2024-01-30T08:32:52;98344.25;;;8.44;64.06
76611;BME280;65503;48.534;9.062;2024-01-30T08:35:19;98341.03;;;8.78;63.88
76611;BME280;65503;48.534;9.062;2024-01-30T08:37:45;98344.09;;;9.17;64.22
76611;BME280;65503;48.534;9.062;2024-01-30T08:40:12;98339.25;;;9.35;60.37
76611;BME280;65503;48.534;9.062;2024-01-30T08:42:39;98333.78;;;9.58;59.94
76611;BME280;65503;48.534;9.062;2024-01-30T08:45:05;98337.56;;;9.49;59.44
76611;BME280;65503;48.534;9.062;2024-01-30T08:47:32;98339.31;;;9.21;60.16
76611;BME280;65503;48.534;9.062;2024-01-30T08:49:59;98340.88;;;8.79;60.14
76611;BME280;65503;48.534;9.062;2024-01-30T08:52:26;98349.41;;;8.52;61.24
76611;BME280;65503;48.534;9.062;2024-01-30T08:54:53;98342.22;;;8.16;57.02
76611;BME280;65503;48.534;9.062;2024-01-30T08:57:20;98340.41;;;8.02;62.22
76611;BME280;65503;48.534;9.062;2024-01-30T08:59:47;98350.31;;;7.92;61.70
76611;BME280;65503;48.534;9.062;2024-01-30T09:02:14;98345.78;;;7.86;59.58
76611;BME280;65503;48.534;9.062;2024-01-30T09:04:42;98346.53;;;7.80;58.47
76611;BME280;65503;48.534;9.062;2024-01-30T09:07:09;98346.59;;;7.72;59.25
76611;BME280;65503;48.534;9.062;2024-01-30T09:09:40;98351.34;;;7.91;62.64
76611;BME280;65503;48.534;9.062;2024-01-30T09:12:07;98356.03;;;8.10;62.65
76611;BME280;65503;48.534;9.062;2024-01-30T09:14:36;98363.06;;;8.62;59.21
76611;BME280;65503;48.534;9.062;2024-01-30T09:17:03;98354.91;;;9.07;58.36
76611;BME280;65503;48.534;9.062;2024-01-30T09:19:30;98358.00;;;9.53;58.21
76611;BME280;65503;48.534;9.062;2024-01-30T09:21:57;98357.16;;;9.95;58.17
76611;BME280;65503;48.534;9.062;2024-01-30T09:24:24;98363.31;;;10.30;51.69
76611;BME280;65503;48.534;9.062;2024-01-30T09:26:51;98363.97;;;10.39;49.92
76611;BME280;65503;48.534;9.062;2024-01-30T09:29:17;98356.59;;;10.28;50.20
76611;BME280;65503;48.534;9.062;2024-01-30T09:31:45;98366.50;;;10.26;50.73
76611;BME280;65503;48.534;9.062;2024-01-30T09:34:12;98371.16;;;10.24;50.69
76611;BME280;65503;48.534;9.062;2024-01-30T09:36:39;98363.72;;;10.06;50.64
76611;BME280;65503;48.534;9.062;2024-01-30T09:39:06;98367.44;;;9.90;50.73
76611;BME280;65503;48.534;9.062;2024-01-30T09:41:39;98361.34;;;9.62;50.95
76611;BME280;65503;48.534;9.062;2024-01-30T09:44:08;98354.38;;;9.54;52.35
76611;BME280;65503;48.534;9.062;2024-01-30T09:46:36;98362.72;;;9.79;52.78
76611;BME280;65503;48.534;9.062;2024-01-30T09:49:03;98360.91;;;10.08;51.92
76611;BME280;65503;48.534;9.062;2024-01-30T09:51:30;98360.22;;;10.27;52.06
76611;BME280;65503;48.534;9.062;2024-01-30T09:53:57;98361.22;;;10.26;51.44
76611;BME280;65503;48.534;9.062;2024-01-30T09:56:23;98369.09;;;10.19;50.99
76611;BME280;65503;48.534;9.062;2024-01-30T09:58:50;98365.03;;;10.17;51.46
76611;BME280;65503;48.534;9.062;2024-01-30T10:01:17;98366.41;;;10.13;51.18
76611;BME280;65503;48.534;9.062;2024-01-30T10:03:45;98369.53;;;10.23;51.45
76611;BME280;65503;48.534;9.062;2024-01-30T10:06:12;98374.03;;;10.29;51.21
76611;BME280;65503;48.534;9.062;2024-01-30T10:08:40;98373.06;;;10.43;50.84
76611;BME280;65503;48.534;9.062;2024-01-30T10:11:08;98373.03;;;10.30;50.14
76611;BME280;65503;48.534;9.062;2024-01-30T10:13:34;98367.00;;;10.15;50.78
76611;BME280;65503;48.534;9.062;2024-01-30T10:16:01;98371.66;;;10.13;50.69
76611;BME280;65503;48.534;9.062;2024-01-30T10:18:29;98366.91;;;10.02;51.29
76611;BME280;65503;48.534;9.062;2024-01-30T10:20:56;98380.94;;;9.87;51.39
76611;BME280;65503;48.534;9.062;2024-01-30T10:23:22;98371.31;;;9.94;51.61
76611;BME280;65503;48.534;9.062;2024-01-30T10:25:51;98372.19;;;10.02;51.64
76611;BME280;65503;48.534;9.062;2024-01-30T10:28:17;98374.81;;;10.02;51.96
76611;BME280;65503;48.534;9.062;2024-01-30T10:30:44;98360.59;;;10.17;51.36
76611;BME280;65503;48.534;9.062;2024-01-30T10:33:10;98358.59;;;10.26;51.28
76611;BME280;65503;48.534;9.062;2024-01-30T10:35:37;98362.69;;;10.28;51.86
76611;BME280;65503;48.534;9.062;2024-01-30T10:38:05;98368.44;;;10.45;51.37
76611;BME280;65503;48.534;9.062;2024-01-30T10:40:35;98359.09;;;10.43;51.82
76611;BME280;65503;48.534;9.062;2024-01-30T10:43:04;98367.28;;;10.54;51.89
76611;BME280;65503;48.534;9.062;2024-01-30T10:45:31;98357.22;;;10.71;51.66
76611;BME280;65503;48.534;9.062;2024-01-30T10:47:59;98357.84;;;10.73;51.56
76611;BME280;65503;48.534;9.062;2024-01-30T10:50:28;98355.66;;;10.83;51.31
76611;BME280;65503;48.534;9.062;2024-01-30T10:52:55;98356.09;;;10.87;50.93
76611;BME280;65503;48.534;9.062;2024-01-30T10:55:22;98360.59;;;11.06;51.35
76611;BME280;65503;48.534;9.062;2024-01-30T10:57:50;98352.53;;;11.14;50.30
76611;BME280;65503;48.534;9.062;2024-01-30T11:00:18;98356.97;;;11.07;49.97
76611;BME280;65503;48.534;9.062;2024-01-30T11:02:48;98350.50;;;11.03;50.24
76611;BME280;65503;48.534;9.062;2024-01-30T11:05:23;98358.66;;;11.21;49.97
76611;BME280;65503;48.534;9.062;2024-01-30T11:07:54;98347.69;;;11.24;50.13
76611;BME280;65503;48.534;9.062;2024-01-30T11:10:20;98340.41;;;11.39;50.35
76611;BME280;65503;48.534;9.062;2024-01-30T11:12:47;98339.25;;;11.48;49.79
76611;BME280;65503;48.534;9.062;2024-01-30T11:15:15;98341.06;;;11.54;49.87
76611;BME280;65503;48.534;9.062;2024-01-30T11:17:53;98345.78;;;11.79;49.37
76611;BME280;65503;48.534;9.062;2024-01-30T11:20:27;98336.84;;;11.86;49.33
76611;BME280;65503;48.534;9.062;2024-01-30T11:22:58;98338.47;;;12.07;49.21
76611;BME280;65503;48.534;9.062;2024-01-30T11:25:25;98335.97;;;12.25;48.95
76611;BME280;65503;48.534;9.062;2024-01-30T11:27:54;98343.69;;;12.33;48.88
76611;BME280;65503;48.534;9.062;2024-01-30T11:30:28;98339.59;;;12.44;48.75
76611;BME280;65503;48.534;9.062;2024-01-30T11:33:09;98336.75;;;12.46;48.63
76611;BME280;65503;48.534;9.062;2024-01-30T11:35:39;98335.50;;;12.55;48.15
76611;BME280;65503;48.534;9.062;2024-01-30T11:38:08;98334.22;;;12.70;47.47
76611;BME280;65503;48.534;9.062;2024-01-30T11:40:38;98337.88;;;12.76;47.04
76611;BME280;65503;48.534;9.062;2024-01-30T11:43:06;98332.63;;;12.69;47.25
76611;BME280;65503;48.534;9.062;2024-01-30T11:45:33;98332.50;;;12.96;47.25
76611;BME280;65503;48.534;9.062;2024-01-30T11:48:01;98334.09;;;13.03;47.12
76611;BME280;65503;48.534;9.062;2024-01-30T11:50:30;98331.09;;;12.93;47.39
76611;BME280;65503;48.534;9.062;2024-01-30T11:52:58;98329.91;;;12.89;46.71
76611;BME280;65503;48.534;9.062;2024-01-30T11:55:25;98324.38;;;12.97;46.92
76611;BME280;65503;48.534;9.062;2024-01-30T11:57:55;98320.91;;;13.03;46.82
76611;BME280;65503;48.534;9.062;2024-01-30T12:00:22;98322.63;;;13.22;46.73
76611;BME280;65503;48.534;9.062;2024-01-30T12:02:53;98318.25;;;13.41;45.95
76611;BME280;65503;48.534;9.062;2024-01-30T12:05:23;98323.41;;;13.30;46.20
76611;BME280;65503;48.534;9.062;2024-01-30T12:07:50;98311.97;;;13.36;46.02
76611;BME280;65503;48.534;9.062;2024-01-30T12:10:16;98314.78;;;13.41;45.49
76611;BME280;65503;48.534;9.062;2024-01-30T12:12:49;98303.88;;;13.31;46.07
76611;BME280;65503;48.534;9.062;2024-01-30T12:15:16;98305.50;;;13.32;46.30
76611;BME280;65503;48.534;9.062;2024-01-30T12:17:43;98300.56;;;13.42;46.20
76611;BME280;65503;48.534;9.062;2024-01-30T12:20:14;98297.13;;;13.35;45.81
76611;BME280;65503;48.534;9.062;2024-01-30T12:22:43;98292.69;;;13.29;46.10
76611;BME280;65503;48.534;9.062;2024-01-30T12:25:10;98290.53;;;13.19;46.10
76611;BME280;65503;48.534;9.062;2024-01-30T12:27:38;98289.88;;;13.23;45.71
76611;BME280;65503;48.534;9.062;2024-01-30T12:30:09;98293.34;;;13.24;45.97
76611;BME280;65503;48.534;9.062;2024-01-30T12:32:37;98284.44;;;13.18;46.24
76611;BME280;65503;48.534;9.062;2024-01-30T12:35:14;98290.25;;;13.27;45.27
76611;BME280;65503;48.534;9.062;2024-01-30T12:37:43;98283.44;;;13.44;45.17
76611;BME280;65503;48.534;9.062;2024-01-30T12:40:11;98286.38;;;13.61;45.05
76611;BME280;65503;48.534;9.062;2024-01-30T12:42:45;98287.22;;;13.80;45.08
76611;BME280;65503;48.534;9.062;2024-01-30T12:45:16;98284.25;;;13.94;45.07
76611;BME280;65503;48.534;9.062;2024-01-30T12:47:46;98281.31;;;14.02;44.45
76611;BME280;65503;48.534;9.062;2024-01-30T12:50:13;98288.41;;;14.27;44.62
76611;BME280;65503;48.534;9.062;2024-01-30T12:52:42;98282.09;;;14.46;44.54
76611;BME280;65503;48.534;9.062;2024-01-30T12:55:11;98286.66;;;14.57;43.45
76611;BME280;65503;48.534;9.062;2024-01-30T12:57:39;98292.47;;;14.66;43.51
76611;BME280;65503;48.534;9.062;2024-01-30T13:00:06;98286.78;;;14.80;43.48
76611;BME280;65503;48.534;9.062;2024-01-30T13:02:35;98284.56;;;14.77;42.50
76611;BME280;65503;48.534;9.062;2024-01-30T13:05:03;98292.53;;;14.59;43.00
76611;BME280;65503;48.534;9.062;2024-01-30T13:07:30;98287.84;;;14.43;43.26